createdAt,value
2022-11-27T00:01:28.635Z,96086.88
2022-11-27T00:04:17.679Z,96090.25
2022-11-27T00:06:57.639Z,96082.59
2022-11-27T00:09:51.615Z,96081.72
2022-11-27T00:12:38.614Z,96091.84
2022-11-27T00:15:40.784Z,96092.75
2022-11-27T00:18:27.612Z,96083.47
2022-11-27T00:21:00.691Z,96088.56
2022-11-27T00:23:47.623Z,96090.31
2022-11-27T00:26:31.899Z,96090.31
2022-11-27T00:29:28.598Z,96098.75
2022-11-27T00:32:22.613Z,96103.03
2022-11-27T00:35:09.631Z,96104.72
2022-11-27T00:37:49.628Z,96105.56
2022-11-27T00:40:43.627Z,96108.03
2022-11-27T00:43:43.998Z,96105.50
2022-11-27T00:46:41.721Z,96112.25
2022-11-27T00:49:28.620Z,96109.72
2022-11-27T00:52:01.726Z,96107.13
2022-11-27T00:54:48.635Z,96108.81
2022-11-27T00:57:21.696Z,96107.91
2022-11-27T01:00:08.641Z,96110.38
2022-11-27T01:02:41.746Z,96101.09
2022-11-27T01:05:28.652Z,96100.25
2022-11-27T01:08:01.695Z,96098.53
2022-11-27T01:10:56.626Z,96101.84
2022-11-27T01:13:40.645Z,96109.44
2022-11-27T01:16:42.069Z,96120.44
2022-11-27T01:19:29.644Z,96117.03
2022-11-27T01:22:02.708Z,96111.09
2022-11-27T01:24:50.649Z,96111.88
2022-11-27T01:27:23.725Z,96109.41
2022-11-27T01:30:10.654Z,96108.56
2022-11-27T01:32:50.662Z,96102.69
2022-11-27T01:35:37.642Z,96104.28
2022-11-27T01:38:10.771Z,96104.25
2022-11-27T01:41:13.660Z,96106.75
2022-11-27T01:43:48.875Z,96100.03
2022-11-27T01:46:48.691Z,96102.44
2022-11-27T01:49:27.729Z,96113.41
2022-11-27T01:52:19.666Z,96096.41
2022-11-27T01:55:17.657Z,96098.94
2022-11-27T01:58:18.681Z,96098.94
2022-11-27T02:01:06.640Z,96095.44
2022-11-27T02:03:40.727Z,96101.28
2022-11-27T02:06:27.674Z,96099.53
2022-11-27T02:09:01.723Z,96102.97
2022-11-27T02:11:57.679Z,96106.28
2022-11-27T02:14:52.719Z,96097.78
2022-11-27T02:17:58.673Z,96108.75
2022-11-27T02:20:59.651Z,96104.47
2022-11-27T02:24:27.691Z,96113.75
2022-11-27T02:27:14.674Z,96107.84
2022-11-27T02:29:51.809Z,96106.09
2022-11-27T02:32:56.671Z,96109.41
2022-11-27T02:35:36.728Z,96104.34
2022-11-27T02:38:36.659Z,96112.75
2022-11-27T02:41:25.650Z,96114.34
2022-11-27T02:44:15.684Z,96110.97
2022-11-27T02:46:56.756Z,96110.88
2022-11-27T02:49:52.667Z,96107.41
2022-11-27T02:52:39.683Z,96112.47
2022-11-27T02:55:18.752Z,96109.03
2022-11-27T02:58:14.699Z,96114.00
2022-11-27T03:01:03.690Z,96111.38
2022-11-27T03:03:42.712Z,96118.94
2022-11-27T03:06:36.676Z,96124.13
2022-11-27T03:09:15.775Z,96124.88
2022-11-27T03:12:02.673Z,96128.22
2022-11-27T03:14:35.818Z,96129.06
2022-11-27T03:17:42.689Z,96128.22
2022-11-27T03:20:27.747Z,96135.00
2022-11-27T03:23:14.698Z,96120.69
2022-11-27T03:25:47.761Z,96129.06
2022-11-27T03:28:35.700Z,96128.22
2022-11-27T03:31:15.785Z,96125.59
2022-11-27T03:34:09.666Z,96127.31
2022-11-27T03:36:56.706Z,96132.41
2022-11-27T03:39:30.811Z,96129.06
2022-11-27T03:42:26.714Z,96130.75
2022-11-27T03:45:09.779Z,96130.75
2022-11-27T03:48:08.696Z,96127.38
2022-11-27T03:51:03.774Z,96123.16
2022-11-27T03:53:53.703Z,96130.72
2022-11-27T03:56:32.786Z,96130.66
2022-11-27T03:59:55.695Z,96134.09
2022-11-27T04:03:04.697Z,96126.41
2022-11-27T04:05:51.708Z,96130.53
2022-11-27T04:08:25.796Z,96129.69
2022-11-27T04:11:12.718Z,96128.78
2022-11-27T04:13:45.768Z,96133.00
2022-11-27T04:16:32.756Z,96134.63
2022-11-27T04:19:05.782Z,96127.03
2022-11-27T04:21:52.730Z,96141.31
2022-11-27T04:24:25.780Z,96142.97
2022-11-27T04:27:12.728Z,96147.19
2022-11-27T04:29:52.732Z,96139.66
2022-11-27T04:32:46.715Z,96140.44
2022-11-27T04:35:33.720Z,96147.91
2022-11-27T04:38:06.784Z,96144.53
2022-11-27T04:40:53.726Z,96147.03
2022-11-27T04:43:26.802Z,96142.66
2022-11-27T04:46:13.753Z,96139.28
2022-11-27T04:48:46.786Z,96141.78
2022-11-27T04:51:33.712Z,96146.84
2022-11-27T04:54:06.805Z,96137.56
2022-11-27T04:56:53.726Z,96134.94
2022-11-27T04:59:33.786Z,96131.53
2022-11-27T05:02:27.774Z,96130.66
2022-11-27T05:05:14.713Z,96144.94
2022-11-27T05:07:47.820Z,96140.75
2022-11-27T05:10:34.715Z,96134.06
2022-11-27T05:13:14.731Z,96135.69
2022-11-27T05:16:08.742Z,96140.72
2022-11-27T05:19:02.717Z,96143.19
2022-11-27T05:21:57.731Z,96144.75
2022-11-27T05:24:44.716Z,96141.31
2022-11-27T05:27:17.821Z,96149.72
2022-11-27T05:30:04.731Z,96149.59
2022-11-27T05:32:44.759Z,96145.19
2022-11-27T05:35:38.721Z,96154.50
2022-11-27T05:38:32.863Z,96158.63
2022-11-27T05:41:26.735Z,96155.19
2022-11-27T05:44:13.731Z,96156.78
2022-11-27T05:46:47.869Z,96156.72
2022-11-27T05:49:34.746Z,96158.41
2022-11-27T05:52:14.752Z,96157.53
2022-11-27T05:55:08.756Z,96162.63
2022-11-27T05:57:55.734Z,96157.53
2022-11-27T06:00:28.849Z,96160.03
2022-11-27T06:03:15.747Z,96163.19
2022-11-27T06:05:48.816Z,96163.25
2022-11-27T06:08:35.753Z,96164.03
2022-11-27T06:11:13.889Z,96162.41
2022-11-27T06:14:00.744Z,96160.66
2022-11-27T06:16:40.802Z,96165.72
2022-11-27T06:19:27.756Z,96166.53
2022-11-27T06:22:00.814Z,96164.88
2022-11-27T06:24:47.760Z,96173.34
2022-11-27T06:27:27.756Z,96177.50
2022-11-27T06:30:22.754Z,96179.09
2022-11-27T06:33:09.765Z,96183.38
2022-11-27T06:35:42.817Z,96183.38
2022-11-27T06:38:30.777Z,96183.16
2022-11-27T06:41:09.868Z,96180.53
2022-11-27T06:43:56.775Z,96183.91
2022-11-27T06:46:36.772Z,96185.63
2022-11-27T06:49:30.751Z,96175.66
2022-11-27T06:52:17.804Z,96173.91
2022-11-27T06:54:50.821Z,96168.06
2022-11-27T06:57:37.768Z,96182.47
2022-11-27T07:00:14.834Z,96178.34
2022-11-27T07:03:02.753Z,96177.00
2022-11-27T07:05:42.764Z,96172.66
2022-11-27T07:08:29.765Z,96167.22
2022-11-27T07:11:22.763Z,96168.94
2022-11-27T07:14:18.771Z,96168.13
2022-11-27T07:17:05.779Z,96162.28
2022-11-27T07:19:38.855Z,96166.59
2022-11-27T07:22:25.754Z,96165.78
2022-11-27T07:24:58.851Z,96164.81
2022-11-27T07:27:45.753Z,96165.56
2022-11-27T07:30:18.938Z,96169.84
2022-11-27T07:33:05.796Z,96174.94
2022-11-27T07:35:38.844Z,96171.59
2022-11-27T07:38:25.773Z,96176.81
2022-11-27T07:41:05.769Z,96175.28
2022-11-27T07:43:52.793Z,96172.81
2022-11-27T07:46:30.198Z,96174.63
2022-11-27T07:49:16.803Z,96176.38
2022-11-27T07:51:49.852Z,96174.78
2022-11-27T07:54:36.793Z,96178.97
2022-11-27T07:57:09.866Z,96179.03
2022-11-27T08:00:03.784Z,96172.31
2022-11-27T08:02:57.796Z,96169.78
2022-11-27T08:05:44.800Z,96160.53
2022-11-27T08:08:17.847Z,96156.31
2022-11-27T08:11:04.794Z,96153.72
2022-11-27T08:13:37.857Z,96157.16
2022-11-27T08:16:24.866Z,96162.97
2022-11-27T08:18:57.881Z,96162.25
2022-11-27T08:21:44.805Z,96155.63
2022-11-27T08:24:17.876Z,96158.19
2022-11-27T08:27:04.784Z,96158.84
2022-11-27T08:29:44.819Z,96166.34
2022-11-27T08:32:38.799Z,96172.31
2022-11-27T08:35:25.793Z,96170.69
2022-11-27T08:37:58.885Z,96174.97
2022-11-27T08:40:45.798Z,96168.38
2022-11-27T08:43:18.872Z,96180.16
2022-11-27T08:46:06.876Z,96177.84
2022-11-27T08:48:39.968Z,96177.91
2022-11-27T08:51:26.829Z,96180.56
2022-11-27T08:54:06.831Z,96176.50
2022-11-27T08:57:00.808Z,96177.59
2022-11-27T08:59:54.793Z,96174.31
2022-11-27T09:02:43.812Z,96175.34
2022-11-27T09:05:16.919Z,96166.31
2022-11-27T09:08:03.805Z,96173.19
2022-11-27T09:10:43.821Z,96170.72
2022-11-27T09:13:30.847Z,96174.09
2022-11-27T09:16:11.854Z,96171.66
2022-11-27T09:19:06.803Z,96180.19
2022-11-27T09:21:55.825Z,96165.09
2022-11-27T09:24:28.889Z,96171.16
2022-11-27T09:27:17.845Z,96167.91
2022-11-27T09:30:00.809Z,96162.97
2022-11-27T09:32:54.804Z,96162.31
2022-11-27T09:35:43.826Z,96158.16
2022-11-27T09:38:16.902Z,96159.88
2022-11-27T09:41:09.825Z,96158.00
2022-11-27T09:43:49.965Z,96155.50
2022-11-27T09:46:42.817Z,96151.16
2022-11-27T09:49:30.828Z,96159.63
2022-11-27T09:52:29.859Z,96149.47
2022-11-27T09:55:38.828Z,96149.59
2022-11-27T09:58:41.816Z,96149.59
2022-11-27T10:01:47.677Z,96153.81
2022-11-27T10:04:58.068Z,96147.88
2022-11-27T10:07:40.025Z,96149.53
2022-11-27T10:10:32.835Z,96144.47
2022-11-27T10:13:28.904Z,96147.06
2022-11-27T10:16:17.893Z,96137.00
2022-11-27T10:18:56.097Z,96142.94
2022-11-27T10:22:01.825Z,96134.47
2022-11-27T10:25:05.968Z,96137.88
2022-11-27T10:28:14.845Z,96137.88
2022-11-27T10:31:08.866Z,96129.53
2022-11-27T10:34:08.848Z,96127.91
2022-11-27T10:36:59.833Z,96128.84
2022-11-27T10:39:58.848Z,96122.97
2022-11-27T10:43:10.845Z,96127.97
2022-11-27T10:45:51.129Z,96125.38
2022-11-27T10:48:38.841Z,96129.63
2022-11-27T10:51:35.873Z,96122.03
2022-11-27T10:54:43.218Z,96122.91
2022-11-27T10:57:49.849Z,96116.16
2022-11-27T11:00:43.910Z,96121.34
2022-11-27T11:03:30.844Z,96113.78
2022-11-27T11:06:20.753Z,96110.47
2022-11-27T11:09:20.849Z,96113.00
2022-11-27T11:11:53.973Z,96112.94
2022-11-27T11:14:40.975Z,96120.53
2022-11-27T11:17:29.896Z,96113.78
2022-11-27T11:20:36.856Z,96108.59
2022-11-27T11:23:28.876Z,96107.72
2022-11-27T11:26:04.997Z,96105.91
2022-11-27T11:28:56.844Z,96110.06
2022-11-27T11:31:48.029Z,96110.00
2022-11-27T11:34:39.027Z,96114.16
2022-11-27T11:37:23.030Z,96104.81
2022-11-27T11:40:16.308Z,96101.28
2022-11-27T11:43:06.847Z,96105.56
2022-11-27T11:45:54.963Z,96104.72
2022-11-27T11:48:39.861Z,96103.94
2022-11-27T11:51:42.868Z,96102.19
2022-11-27T11:54:55.859Z,96099.66
2022-11-27T11:58:00.908Z,96099.66
2022-11-27T12:01:25.310Z,96100.50
2022-11-27T12:04:35.914Z,96095.31
2022-11-27T12:07:18.957Z,96092.75
2022-11-27T12:10:18.874Z,96094.38
2022-11-27T12:13:39.865Z,96086.81
2022-11-27T12:17:22.884Z,96088.53
2022-11-27T12:20:19.890Z,96074.13
2022-11-27T12:23:38.892Z,96079.19
2022-11-27T12:26:28.892Z,96080.09
2022-11-27T12:29:27.125Z,96083.44
2022-11-27T12:32:34.902Z,96084.13
2022-11-27T12:35:23.905Z,96077.50
2022-11-27T12:38:39.899Z,96078.38
2022-11-27T12:41:56.929Z,96078.28
2022-11-27T12:44:55.893Z,96074.84
2022-11-27T12:47:56.904Z,96073.22
2022-11-27T12:50:55.897Z,96071.53
2022-11-27T12:53:48.878Z,96080.81
2022-11-27T12:56:28.892Z,96069.00
2022-11-27T12:59:26.887Z,96075.75
2022-11-27T13:02:24.027Z,96066.41
2022-11-27T13:05:14.904Z,96063.88
2022-11-27T13:08:00.073Z,96060.47
2022-11-27T13:11:12.903Z,96059.56
2022-11-27T13:14:12.884Z,96064.63
2022-11-27T13:17:02.989Z,96062.09
2022-11-27T13:20:08.074Z,96068.84
2022-11-27T13:22:57.062Z,96072.22
2022-11-27T13:25:38.891Z,96064.63
2022-11-27T13:28:57.913Z,96065.38
2022-11-27T13:31:45.988Z,96066.97
2022-11-27T13:34:29.984Z,96064.38
2022-11-27T13:37:32.908Z,96066.78
2022-11-27T13:40:38.927Z,96063.28
2022-11-27T13:43:39.899Z,96063.28
2022-11-27T13:46:31.892Z,96060.69
2022-11-27T13:49:07.984Z,96068.19
2022-11-27T13:51:54.924Z,96074.88
2022-11-27T13:54:29.315Z,96070.59
2022-11-27T13:57:23.902Z,96070.59
2022-11-27T14:00:15.980Z,96074.00
2022-11-27T14:03:02.920Z,96064.63
2022-11-27T14:05:58.909Z,96062.97
2022-11-27T14:08:52.951Z,96062.06
2022-11-27T14:11:53.917Z,96058.69
2022-11-27T14:14:30.117Z,96061.94
2022-11-27T14:17:47.922Z,96056.03
2022-11-27T14:20:26.023Z,96056.84
2022-11-27T14:23:12.186Z,96055.09
2022-11-27T14:25:52.921Z,96055.94
2022-11-27T14:28:28.078Z,96053.34
2022-11-27T14:31:42.028Z,96053.28
2022-11-27T14:34:51.049Z,96046.44
2022-11-27T14:37:39.098Z,96041.34
2022-11-27T14:40:27.045Z,96033.84
2022-11-27T14:43:27.051Z,96048.22
2022-11-27T14:46:08.278Z,96043.03
2022-11-27T14:48:57.980Z,96045.56
2022-11-27T14:51:41.912Z,96045.63
2022-11-27T14:54:50.953Z,96043.91
2022-11-27T14:57:44.937Z,96041.34
2022-11-27T15:00:39.985Z,96041.34
2022-11-27T15:03:26.984Z,96044.59
2022-11-27T15:06:05.096Z,96042.88
2022-11-27T15:09:15.849Z,96044.53
2022-11-27T15:12:00.764Z,96043.69
2022-11-27T15:14:52.958Z,96048.75
2022-11-27T15:17:33.047Z,96046.16
2022-11-27T15:20:22.952Z,96032.50
2022-11-27T15:23:11.979Z,96034.13
2022-11-27T15:26:22.478Z,96035.78
2022-11-27T15:29:39.016Z,96032.38
2022-11-27T15:32:34.072Z,96039.16
2022-11-27T15:35:27.985Z,96037.47
2022-11-27T15:38:05.598Z,96031.59
2022-11-27T15:40:51.991Z,96036.63
2022-11-27T15:43:31.980Z,96039.97
2022-11-27T15:46:33.983Z,96043.31
2022-11-27T15:49:21.979Z,96044.09
2022-11-27T15:51:55.071Z,96042.41
2022-11-27T15:54:44.170Z,96033.97
2022-11-27T15:57:18.084Z,96036.44
2022-11-27T16:00:13.982Z,96035.66
2022-11-27T16:03:07.991Z,96033.88
2022-11-27T16:05:55.005Z,96026.28
2022-11-27T16:08:28.082Z,96033.03
2022-11-27T16:11:21.015Z,96027.97
2022-11-27T16:13:54.117Z,96032.94
2022-11-27T16:16:42.057Z,96026.28
2022-11-27T16:19:17.105Z,96022.91
2022-11-27T16:22:05.981Z,96019.50
2022-11-27T16:24:39.995Z,96016.13
2022-11-27T16:27:27.000Z,96022.84
2022-11-27T16:30:07.024Z,96021.16
2022-11-27T16:33:01.036Z,96020.38
2022-11-27T16:35:47.982Z,96009.38
2022-11-27T16:38:28.078Z,96015.31
2022-11-27T16:41:23.985Z,96012.78
2022-11-27T16:44:17.021Z,96010.25
2022-11-27T16:46:50.076Z,96007.75
2022-11-27T16:49:37.013Z,96006.84
2022-11-27T16:52:11.216Z,96005.22
2022-11-27T16:54:57.988Z,96002.69
2022-11-27T16:57:31.224Z,96005.22
2022-11-27T17:00:25.031Z,95998.44
2022-11-27T17:03:19.016Z,96010.25
2022-11-27T17:06:13.016Z,96004.25
2022-11-27T17:09:01.023Z,96005.94
2022-11-27T17:11:37.167Z,96008.47
2022-11-27T17:14:25.008Z,96008.41
2022-11-27T17:16:58.163Z,96006.72
2022-11-27T17:19:45.014Z,96004.19
2022-11-27T17:22:27.764Z,96006.72
2022-11-27T17:25:21.011Z,95994.94
2022-11-27T17:28:15.063Z,95992.41
2022-11-27T17:31:09.106Z,95996.75
2022-11-27T17:33:55.986Z,95988.41
2022-11-27T17:36:36.520Z,95990.06
2022-11-27T17:39:23.985Z,95990.91
2022-11-27T17:41:57.106Z,95994.22
2022-11-27T17:44:45.012Z,95998.47
2022-11-27T17:47:18.078Z,95997.63
2022-11-27T17:50:07.749Z,95992.59
2022-11-27T17:52:41.094Z,95988.31
2022-11-27T17:55:28.016Z,95987.53
2022-11-27T17:58:01.136Z,95988.38
2022-11-27T18:00:48.054Z,95990.06
2022-11-27T18:03:29.906Z,95995.97
2022-11-27T18:06:24.010Z,95985.88
2022-11-27T18:09:11.051Z,95991.94
2022-11-27T18:11:53.990Z,95993.69
2022-11-27T18:14:41.065Z,95989.41
2022-11-27T18:17:23.999Z,95988.56
2022-11-27T18:20:17.818Z,95979.25
2022-11-27T18:22:58.021Z,95977.44
2022-11-27T18:25:54.014Z,95975.75
2022-11-27T18:28:41.066Z,95977.31
2022-11-27T18:31:23.204Z,95972.19
2022-11-27T18:34:10.090Z,95974.72
2022-11-27T18:36:50.024Z,95975.56
2022-11-27T18:39:44.343Z,95972.97
2022-11-27T18:42:40.013Z,95968.84
2022-11-27T18:45:33.253Z,95965.53
2022-11-27T18:48:12.257Z,95963.88
2022-11-27T18:51:01.217Z,95967.22
2022-11-27T18:53:34.168Z,95968.03
2022-11-27T18:56:27.066Z,95963.75
2022-11-27T18:59:01.124Z,95960.34
2022-11-27T19:01:48.226Z,95949.41
2022-11-27T19:04:21.144Z,95949.47
2022-11-27T19:07:08.080Z,95954.50
2022-11-27T19:09:41.377Z,95951.97
2022-11-27T19:12:28.091Z,95955.34
2022-11-27T19:15:01.137Z,95959.59
2022-11-27T19:17:48.019Z,95951.97
2022-11-27T19:20:21.146Z,95955.31
2022-11-27T19:23:09.157Z,95948.63
2022-11-27T19:25:46.419Z,95942.78
2022-11-27T19:28:33.084Z,95943.69
2022-11-27T19:31:17.071Z,95940.28
2022-11-27T19:34:13.069Z,95930.94
2022-11-27T19:37:00.124Z,95935.16
2022-11-27T19:39:33.363Z,95936.81
2022-11-27T19:42:20.086Z,95932.56
2022-11-27T19:44:55.880Z,95930.88
2022-11-27T19:47:43.064Z,95929.97
2022-11-27T19:50:16.168Z,95929.91
2022-11-27T19:53:06.177Z,95924.72
2022-11-27T19:55:47.046Z,95921.28
2022-11-27T19:58:34.079Z,95922.06
2022-11-27T20:01:16.229Z,95917.88
2022-11-27T20:04:03.142Z,95917.88
2022-11-27T20:06:43.113Z,95911.09
2022-11-27T20:09:33.076Z,95920.28
2022-11-27T20:12:13.104Z,95915.22
2022-11-27T20:15:10.099Z,95919.41
2022-11-27T20:17:57.098Z,95916.84
2022-11-27T20:20:37.105Z,95915.13
2022-11-27T20:23:24.121Z,95915.13
2022-11-27T20:25:57.167Z,95904.94
2022-11-27T20:28:48.125Z,95904.88
2022-11-27T20:31:32.169Z,95914.25
2022-11-27T20:34:33.111Z,95913.38
2022-11-27T20:37:30.084Z,95909.13
2022-11-27T20:40:17.104Z,95913.25
2022-11-27T20:42:52.433Z,95911.47
2022-11-27T20:45:39.174Z,95911.44
2022-11-27T20:48:13.208Z,95920.69
2022-11-27T20:51:02.084Z,95915.69
2022-11-27T20:53:42.089Z,95919.06
2022-11-27T20:56:40.134Z,95915.63
2022-11-27T20:59:36.090Z,95917.25
2022-11-27T21:02:30.142Z,95910.59
2022-11-27T21:05:18.085Z,95913.16
2022-11-27T21:07:58.148Z,95912.34
2022-11-27T21:10:54.129Z,95910.72
2022-11-27T21:13:50.088Z,95900.63
2022-11-27T21:16:46.178Z,95896.38
2022-11-27T21:19:42.287Z,95902.28
2022-11-27T21:22:36.130Z,95898.09
2022-11-27T21:25:25.623Z,95888.88
2022-11-27T21:28:00.215Z,95890.56
2022-11-27T21:30:48.134Z,95892.19
2022-11-27T21:33:22.186Z,95892.19
2022-11-27T21:36:10.138Z,95887.19
2022-11-27T21:38:43.198Z,95888.84
2022-11-27T21:41:32.086Z,95886.28
2022-11-27T21:44:08.172Z,95882.91
2022-11-27T21:46:56.088Z,95882.81
2022-11-27T21:49:36.131Z,95884.41
2022-11-27T21:52:31.136Z,95887.84
2022-11-27T21:55:19.129Z,95881.13
2022-11-27T21:57:52.196Z,95886.19
2022-11-27T22:00:46.186Z,95878.63
2022-11-27T22:03:42.762Z,95876.09
2022-11-27T22:06:34.127Z,95877.88
2022-11-27T22:09:11.830Z,95877.00
2022-11-27T22:12:01.115Z,95876.09
2022-11-27T22:14:34.211Z,95874.38
2022-11-27T22:17:14.224Z,95880.28
2022-11-27T22:19:54.130Z,95875.28
2022-11-27T22:22:34.128Z,95875.34
2022-11-27T22:25:21.143Z,95872.03
2022-11-27T22:27:54.212Z,95865.31
2022-11-27T22:30:41.180Z,95866.94
2022-11-27T22:33:14.184Z,95864.38
2022-11-27T22:36:01.131Z,95867.72
2022-11-27T22:38:41.132Z,95872.72
2022-11-27T22:41:38.137Z,95861.78
2022-11-27T22:44:33.140Z,95855.81
2022-11-27T22:47:20.126Z,95864.22
2022-11-27T22:49:53.190Z,95862.59
2022-11-27T22:52:40.144Z,95854.19
2022-11-27T22:55:20.145Z,95853.34
2022-11-27T22:58:14.134Z,95853.38
2022-11-27T23:01:11.120Z,95851.72
2022-11-27T23:03:59.228Z,95846.66
2022-11-27T23:06:32.189Z,95844.94
2022-11-27T23:09:19.137Z,95843.97
2022-11-27T23:11:52.816Z,95843.13
2022-11-27T23:14:39.356Z,95847.28
2022-11-27T23:17:12.204Z,95837.06
2022-11-27T23:19:59.141Z,95838.75
2022-11-27T23:22:32.233Z,95840.47
2022-11-27T23:25:19.120Z,95839.53
2022-11-27T23:27:52.205Z,95841.25
2022-11-27T23:30:43.124Z,95827.72
2022-11-27T23:33:16.196Z,95836.16
2022-11-27T23:36:08.132Z,95832.78
2022-11-27T23:38:48.139Z,95828.63
2022-11-27T23:41:38.567Z,95827.03
2022-11-27T23:44:12.276Z,95824.56
2022-11-27T23:46:59.424Z,95831.31
2022-11-27T23:49:39.162Z,95825.47
2022-11-27T23:52:33.154Z,95824.72
2022-11-27T23:55:27.134Z,95823.00
2022-11-27T23:58:21.130Z,95820.47
